sensor_id;sensor_type;location;lat;lon;timestamp;P1;durP1;ratioP1;P2;durP2;ratioP2
7306;SDS011;3694;48.732;9.248;2023-04-03T00:00:28;4.43;;;3.60;;
7306;SDS011;3694;48.732;9.248;2023-04-03T00:02:54;4.63;;;3.77;;
7306;SDS011;3694;48.732;9.248;2023-04-03T00:05:19;3.70;;;3.30;;
7306;SDS011;3694;48.732;9.248;2023-04-03T00:07:45;4.07;;;3.70;;
7306;SDS011;3694;48.732;9.248;2023-04-03T00:10:10;3.80;;;3.50;;
7306;SDS011;3694;48.732;9.248;2023-04-03T00:12:37;4.13;;;3.60;;
7306;SDS011;3694;48.732;9.248;2023-04-03T00:15:02;5.33;;;3.50;;
7306;SDS011;3694;48.732;9.248;2023-04-03T00:17:28;6.20;;;3.33;;
7306;SDS011;3694;48.732;9.248;2023-04-03T00:19:54;4.00;;;3.60;;
7306;SDS011;3694;48.732;9.248;2023-04-03T00:22:20;4.03;;;3.63;;
7306;SDS011;3694;48.732;9.248;2023-04-03T00:24:45;3.97;;;3.67;;
7306;SDS011;3694;48.732;9.248;2023-04-03T00:27:11;3.80;;;3.40;;
7306;SDS011;3694;48.732;9.248;2023-04-03T00:29:36;4.00;;;3.70;;
7306;SDS011;3694;48.732;9.248;2023-04-03T00:32:02;3.90;;;3.60;;
7306;SDS011;3694;48.732;9.248;2023-04-03T00:34:27;5.67;;;4.07;;
7306;SDS011;3694;48.732;9.248;2023-04-03T00:36:53;4.13;;;3.73;;
7306;SDS011;3694;48.732;9.248;2023-04-03T00:39:18;4.17;;;3.77;;
7306;SDS011;3694;48.732;9.248;2023-04-03T00:41:44;5.63;;;3.83;;
7306;SDS011;3694;48.732;9.248;2023-04-03T00:46:44;3.60;;;3.30;;
7306;SDS011;3694;48.732;9.248;2023-04-03T00:49:10;4.53;;;3.73;;
7306;SDS011;3694;48.732;9.248;2023-04-03T00:51:35;4.93;;;4.40;;
7306;SDS011;3694;48.732;9.248;2023-04-03T00:54:02;4.87;;;3.90;;
7306;SDS011;3694;48.732;9.248;2023-04-03T00:56:31;4.03;;;3.63;;
7306;SDS011;3694;48.732;9.248;2023-04-03T00:59:02;4.27;;;3.80;;
7306;SDS011;3694;48.732;9.248;2023-04-03T01:01:31;4.93;;;4.00;;
7306;SDS011;3694;48.732;9.248;2023-04-03T01:04:00;3.80;;;3.43;;
7306;SDS011;3694;48.732;9.248;2023-04-03T01:06:29;5.97;;;4.23;;
7306;SDS011;3694;48.732;9.248;2023-04-03T01:08:57;4.40;;;3.60;;
7306;SDS011;3694;48.732;9.248;2023-04-03T01:11:24;4.17;;;3.77;;
7306;SDS011;3694;48.732;9.248;2023-04-03T01:13:51;3.97;;;3.67;;
7306;SDS011;3694;48.732;9.248;2023-04-03T01:16:17;3.87;;;3.57;;
7306;SDS011;3694;48.732;9.248;2023-04-03T01:18:43;4.77;;;3.77;;
7306;SDS011;3694;48.732;9.248;2023-04-03T01:26:52;3.90;;;3.60;;
7306;SDS011;3694;48.732;9.248;2023-04-03T01:29:17;3.63;;;3.33;;
7306;SDS011;3694;48.732;9.248;2023-04-03T01:31:50;4.30;;;3.80;;
7306;SDS011;3694;48.732;9.248;2023-04-03T01:34:20;5.27;;;3.37;;
7306;SDS011;3694;48.732;9.248;2023-04-03T01:36:46;6.90;;;3.77;;
7306;SDS011;3694;48.732;9.248;2023-04-03T01:39:12;4.30;;;3.50;;
7306;SDS011;3694;48.732;9.248;2023-04-03T01:41:37;5.00;;;3.70;;
7306;SDS011;3694;48.732;9.248;2023-04-03T01:44:03;3.77;;;3.43;;
7306;SDS011;3694;48.732;9.248;2023-04-03T01:46:29;4.73;;;3.80;;
7306;SDS011;3694;48.732;9.248;2023-04-03T01:48:55;5.43;;;3.63;;
7306;SDS011;3694;48.732;9.248;2023-04-03T01:51:20;4.00;;;3.70;;
7306;SDS011;3694;48.732;9.248;2023-04-03T01:53:46;3.93;;;3.53;;
7306;SDS011;3694;48.732;9.248;2023-04-03T01:56:12;4.80;;;3.50;;
7306;SDS011;3694;48.732;9.248;2023-04-03T01:58:37;3.90;;;3.50;;
7306;SDS011;3694;48.732;9.248;2023-04-03T02:01:03;4.63;;;3.73;;
7306;SDS011;3694;48.732;9.248;2023-04-03T02:03:29;4.37;;;3.87;;
7306;SDS011;3694;48.732;9.248;2023-04-03T02:05:55;3.97;;;3.30;;
7306;SDS011;3694;48.732;9.248;2023-04-03T02:08:21;4.00;;;3.70;;
7306;SDS011;3694;48.732;9.248;2023-04-03T02:10:47;4.50;;;4.10;;
7306;SDS011;3694;48.732;9.248;2023-04-03T02:13:13;4.43;;;4.03;;
7306;SDS011;3694;48.732;9.248;2023-04-03T02:15:39;3.90;;;3.60;;
7306;SDS011;3694;48.732;9.248;2023-04-03T02:18:05;4.40;;;4.00;;
7306;SDS011;3694;48.732;9.248;2023-04-03T02:20:31;5.27;;;3.80;;
7306;SDS011;3694;48.732;9.248;2023-04-03T02:22:58;4.37;;;3.97;;
7306;SDS011;3694;48.732;9.248;2023-04-03T02:25:24;4.10;;;3.70;;
7306;SDS011;3694;48.732;9.248;2023-04-03T02:27:50;4.80;;;3.53;;
7306;SDS011;3694;48.732;9.248;2023-04-03T02:30:15;4.20;;;3.67;;
7306;SDS011;3694;48.732;9.248;2023-04-03T02:32:41;4.07;;;3.77;;
7306;SDS011;3694;48.732;9.248;2023-04-03T02:35:08;5.63;;;3.67;;
7306;SDS011;3694;48.732;9.248;2023-04-03T02:37:35;3.77;;;3.40;;
7306;SDS011;3694;48.732;9.248;2023-04-03T02:40:00;3.83;;;3.47;;
7306;SDS011;3694;48.732;9.248;2023-04-03T02:42:26;3.77;;;3.47;;
7306;SDS011;3694;48.732;9.248;2023-04-03T02:44:52;4.10;;;3.60;;
7306;SDS011;3694;48.732;9.248;2023-04-03T02:47:17;4.07;;;3.73;;
7306;SDS011;3694;48.732;9.248;2023-04-03T02:49:43;3.60;;;3.30;;
7306;SDS011;3694;48.732;9.248;2023-04-03T02:52:10;3.80;;;3.40;;
7306;SDS011;3694;48.732;9.248;2023-04-03T02:54:35;4.00;;;3.57;;
7306;SDS011;3694;48.732;9.248;2023-04-03T02:57:01;3.43;;;2.87;;
7306;SDS011;3694;48.732;9.248;2023-04-03T02:59:26;3.90;;;3.50;;
7306;SDS011;3694;48.732;9.248;2023-04-03T03:01:52;4.10;;;3.27;;
7306;SDS011;3694;48.732;9.248;2023-04-03T03:04:18;3.93;;;3.00;;
7306;SDS011;3694;48.732;9.248;2023-04-03T03:06:43;3.60;;;3.30;;
7306;SDS011;3694;48.732;9.248;2023-04-03T03:09:09;4.93;;;3.87;;
7306;SDS011;3694;48.732;9.248;2023-04-03T03:11:34;3.70;;;3.37;;
7306;SDS011;3694;48.732;9.248;2023-04-03T03:14:00;3.30;;;3.00;;
7306;SDS011;3694;48.732;9.248;2023-04-03T03:16:26;4.03;;;3.50;;
7306;SDS011;3694;48.732;9.248;2023-04-03T03:18:51;4.10;;;2.90;;
7306;SDS011;3694;48.732;9.248;2023-04-03T03:21:17;3.97;;;3.03;;
7306;SDS011;3694;48.732;9.248;2023-04-03T03:23:42;4.17;;;3.80;;
7306;SDS011;3694;48.732;9.248;2023-04-03T03:26:09;4.30;;;3.57;;
7306;SDS011;3694;48.732;9.248;2023-04-03T03:28:35;3.77;;;3.40;;
7306;SDS011;3694;48.732;9.248;2023-04-03T03:31:02;3.80;;;3.27;;
7306;SDS011;3694;48.732;9.248;2023-04-03T03:33:28;4.70;;;3.17;;
7306;SDS011;3694;48.732;9.248;2023-04-03T03:35:54;3.47;;;3.17;;
7306;SDS011;3694;48.732;9.248;2023-04-03T03:38:20;4.60;;;3.50;;
7306;SDS011;3694;48.732;9.248;2023-04-03T03:40:49;3.83;;;3.13;;
7306;SDS011;3694;48.732;9.248;2023-04-03T03:43:15;3.27;;;2.97;;
7306;SDS011;3694;48.732;9.248;2023-04-03T03:45:42;2.90;;;2.70;;
7306;SDS011;3694;48.732;9.248;2023-04-03T03:48:07;3.33;;;3.00;;
7306;SDS011;3694;48.732;9.248;2023-04-03T03:50:33;3.03;;;2.77;;
7306;SDS011;3694;48.732;9.248;2023-04-03T03:52:58;3.97;;;3.20;;
7306;SDS011;3694;48.732;9.248;2023-04-03T03:55:24;3.10;;;2.87;;
7306;SDS011;3694;48.732;9.248;2023-04-03T03:57:50;3.93;;;2.90;;
7306;SDS011;3694;48.732;9.248;2023-04-03T04:00:16;3.50;;;3.20;;
7306;SDS011;3694;48.732;9.248;2023-04-03T04:02:41;3.43;;;3.10;;
7306;SDS011;3694;48.732;9.248;2023-04-03T04:05:07;4.10;;;3.40;;
7306;SDS011;3694;48.732;9.248;2023-04-03T04:07:33;2.90;;;2.70;;
7306;SDS011;3694;48.732;9.248;2023-04-03T04:09:58;3.53;;;2.90;;
7306;SDS011;3694;48.732;9.248;2023-04-03T04:12:24;3.20;;;2.90;;
7306;SDS011;3694;48.732;9.248;2023-04-03T04:14:50;4.03;;;2.90;;
7306;SDS011;3694;48.732;9.248;2023-04-03T04:17:15;3.23;;;2.93;;
7306;SDS011;3694;48.732;9.248;2023-04-03T04:19:41;3.53;;;2.90;;
7306;SDS011;3694;48.732;9.248;2023-04-03T04:22:06;2.77;;;2.57;;
7306;SDS011;3694;48.732;9.248;2023-04-03T04:24:32;3.27;;;2.97;;
7306;SDS011;3694;48.732;9.248;2023-04-03T04:26:58;3.20;;;2.90;;
7306;SDS011;3694;48.732;9.248;2023-04-03T04:29:23;4.00;;;2.80;;
7306;SDS011;3694;48.732;9.248;2023-04-03T04:31:49;3.00;;;2.67;;
7306;SDS011;3694;48.732;9.248;2023-04-03T04:34:14;3.47;;;3.00;;
7306;SDS011;3694;48.732;9.248;2023-04-03T04:36:40;3.00;;;2.80;;
7306;SDS011;3694;48.732;9.248;2023-04-03T04:39:06;3.30;;;2.70;;
7306;SDS011;3694;48.732;9.248;2023-04-03T04:41:31;3.40;;;3.03;;
7306;SDS011;3694;48.732;9.248;2023-04-03T04:43:57;3.60;;;2.60;;
7306;SDS011;3694;48.732;9.248;2023-04-03T04:46:22;3.40;;;2.90;;
7306;SDS011;3694;48.732;9.248;2023-04-03T04:48:48;3.00;;;2.47;;
7306;SDS011;3694;48.732;9.248;2023-04-03T04:51:14;2.83;;;2.50;;
7306;SDS011;3694;48.732;9.248;2023-04-03T04:53:40;2.60;;;2.40;;
7306;SDS011;3694;48.732;9.248;2023-04-03T04:56:06;2.70;;;2.50;;
7306;SDS011;3694;48.732;9.248;2023-04-03T04:58:32;2.97;;;2.73;;
7306;SDS011;3694;48.732;9.248;2023-04-03T05:01:01;2.60;;;2.40;;
7306;SDS011;3694;48.732;9.248;2023-04-03T05:03:28;3.27;;;2.60;;
7306;SDS011;3694;48.732;9.248;2023-04-03T05:05:53;2.83;;;2.53;;
7306;SDS011;3694;48.732;9.248;2023-04-03T05:08:19;2.77;;;2.57;;
7306;SDS011;3694;48.732;9.248;2023-04-03T05:10:45;2.60;;;2.40;;
7306;SDS011;3694;48.732;9.248;2023-04-03T05:13:11;2.67;;;2.47;;
7306;SDS011;3694;48.732;9.248;2023-04-03T05:15:37;2.60;;;2.40;;
7306;SDS011;3694;48.732;9.248;2023-04-03T05:18:02;3.20;;;2.53;;
7306;SDS011;3694;48.732;9.248;2023-04-03T05:20:28;2.60;;;2.40;;
7306;SDS011;3694;48.732;9.248;2023-04-03T05:22:53;2.93;;;2.30;;
7306;SDS011;3694;48.732;9.248;2023-04-03T05:25:19;5.83;;;2.73;;
7306;SDS011;3694;48.732;9.248;2023-04-03T05:27:44;2.30;;;2.10;;
7306;SDS011;3694;48.732;9.248;2023-04-03T05:30:10;2.20;;;2.00;;
7306;SDS011;3694;48.732;9.248;2023-04-03T05:32:36;3.13;;;2.60;;
7306;SDS011;3694;48.732;9.248;2023-04-03T05:35:01;2.60;;;2.23;;
7306;SDS011;3694;48.732;9.248;2023-04-03T05:37:27;2.60;;;2.40;;
7306;SDS011;3694;48.732;9.248;2023-04-03T05:39:53;4.97;;;2.80;;
7306;SDS011;3694;48.732;9.248;2023-04-03T05:42:18;3.20;;;2.37;;
7306;SDS011;3694;48.732;9.248;2023-04-03T05:44:44;2.70;;;2.50;;
7306;SDS011;3694;48.732;9.248;2023-04-03T05:47:12;4.40;;;2.37;;
7306;SDS011;3694;48.732;9.248;2023-04-03T05:49:37;2.50;;;2.20;;
7306;SDS011;3694;48.732;9.248;2023-04-03T05:52:05;2.73;;;2.53;;
7306;SDS011;3694;48.732;9.248;2023-04-03T05:54:37;4.10;;;2.90;;
7306;SDS011;3694;48.732;9.248;2023-04-03T05:57:03;3.17;;;2.10;;
7306;SDS011;3694;48.732;9.248;2023-04-03T05:59:28;2.70;;;2.50;;
7306;SDS011;3694;48.732;9.248;2023-04-03T06:01:54;3.50;;;2.80;;
7306;SDS011;3694;48.732;9.248;2023-04-03T06:04:19;3.43;;;2.50;;
7306;SDS011;3694;48.732;9.248;2023-04-03T06:06:46;4.30;;;2.77;;
7306;SDS011;3694;48.732;9.248;2023-04-03T06:09:20;3.60;;;2.37;;
7306;SDS011;3694;48.732;9.248;2023-04-03T06:11:47;2.60;;;2.40;;
7306;SDS011;3694;48.732;9.248;2023-04-03T06:14:12;2.67;;;2.47;;
7306;SDS011;3694;48.732;9.248;2023-04-03T06:16:38;2.83;;;2.63;;
7306;SDS011;3694;48.732;9.248;2023-04-03T06:19:05;3.07;;;2.70;;
7306;SDS011;3694;48.732;9.248;2023-04-03T06:21:32;5.20;;;2.70;;
7306;SDS011;3694;48.732;9.248;2023-04-03T06:23:57;3.23;;;2.60;;
7306;SDS011;3694;48.732;9.248;2023-04-03T06:26:23;2.90;;;2.50;;
7306;SDS011;3694;48.732;9.248;2023-04-03T06:28:49;2.33;;;1.93;;
7306;SDS011;3694;48.732;9.248;2023-04-03T06:31:14;3.33;;;1.97;;
7306;SDS011;3694;48.732;9.248;2023-04-03T06:33:41;3.33;;;2.47;;
7306;SDS011;3694;48.732;9.248;2023-04-03T06:36:07;2.47;;;2.27;;
7306;SDS011;3694;48.732;9.248;2023-04-03T06:38:33;2.43;;;2.23;;
7306;SDS011;3694;48.732;9.248;2023-04-03T06:40:59;3.80;;;2.30;;
7306;SDS011;3694;48.732;9.248;2023-04-03T06:43:25;2.83;;;2.60;;
7306;SDS011;3694;48.732;9.248;2023-04-03T06:45:51;4.57;;;2.43;;
7306;SDS011;3694;48.732;9.248;2023-04-03T06:48:17;4.50;;;2.70;;
7306;SDS011;3694;48.732;9.248;2023-04-03T06:50:42;2.90;;;2.60;;
7306;SDS011;3694;48.732;9.248;2023-04-03T06:53:09;2.57;;;2.37;;
7306;SDS011;3694;48.732;9.248;2023-04-03T06:55:35;3.60;;;2.77;;
7306;SDS011;3694;48.732;9.248;2023-04-03T06:58:00;2.97;;;2.60;;
7306;SDS011;3694;48.732;9.248;2023-04-03T07:00:26;2.93;;;2.63;;
7306;SDS011;3694;48.732;9.248;2023-04-03T07:02:52;3.27;;;2.30;;
7306;SDS011;3694;48.732;9.248;2023-04-03T07:05:18;2.80;;;2.20;;
7306;SDS011;3694;48.732;9.248;2023-04-03T07:07:43;5.10;;;2.70;;
7306;SDS011;3694;48.732;9.248;2023-04-03T07:10:09;3.03;;;2.70;;
7306;SDS011;3694;48.732;9.248;2023-04-03T07:12:35;4.13;;;2.50;;
7306;SDS011;3694;48.732;9.248;2023-04-03T07:15:01;3.43;;;2.50;;
7306;SDS011;3694;48.732;9.248;2023-04-03T07:17:27;2.73;;;2.50;;
7306;SDS011;3694;48.732;9.248;2023-04-03T07:19:53;4.00;;;2.37;;
7306;SDS011;3694;48.732;9.248;2023-04-03T07:22:19;3.43;;;2.00;;
7306;SDS011;3694;48.732;9.248;2023-04-03T07:24:45;3.37;;;2.70;;
7306;SDS011;3694;48.732;9.248;2023-04-03T07:27:11;3.27;;;2.93;;
7306;SDS011;3694;48.732;9.248;2023-04-03T07:29:38;3.97;;;2.70;;
7306;SDS011;3694;48.732;9.248;2023-04-03T07:32:04;3.00;;;2.70;;
7306;SDS011;3694;48.732;9.248;2023-04-03T07:34:30;3.17;;;2.73;;
7306;SDS011;3694;48.732;9.248;2023-04-03T07:36:57;4.97;;;2.47;;
7306;SDS011;3694;48.732;9.248;2023-04-03T07:39:23;3.43;;;2.17;;
7306;SDS011;3694;48.732;9.248;2023-04-03T07:41:48;3.27;;;2.70;;
7306;SDS011;3694;48.732;9.248;2023-04-03T07:44:14;2.97;;;2.20;;
7306;SDS011;3694;48.732;9.248;2023-04-03T07:46:40;3.37;;;2.57;;
7306;SDS011;3694;48.732;9.248;2023-04-03T07:49:05;2.70;;;2.50;;
7306;SDS011;3694;48.732;9.248;2023-04-03T07:51:31;3.10;;;2.40;;
7306;SDS011;3694;48.732;9.248;2023-04-03T07:53:57;2.40;;;2.20;;
7306;SDS011;3694;48.732;9.248;2023-04-03T07:56:23;3.37;;;2.37;;
7306;SDS011;3694;48.732;9.248;2023-04-03T07:58:50;3.80;;;2.50;;
7306;SDS011;3694;48.732;9.248;2023-04-03T08:01:16;3.30;;;2.73;;
7306;SDS011;3694;48.732;9.248;2023-04-03T08:03:41;2.67;;;2.20;;
7306;SDS011;3694;48.732;9.248;2023-04-03T08:06:07;3.20;;;2.47;;
7306;SDS011;3694;48.732;9.248;2023-04-03T08:08:33;3.47;;;2.80;;
7306;SDS011;3694;48.732;9.248;2023-04-03T08:11:00;4.17;;;1.97;;
7306;SDS011;3694;48.732;9.248;2023-04-03T08:13:28;3.30;;;2.30;;
7306;SDS011;3694;48.732;9.248;2023-04-03T08:15:54;2.90;;;2.63;;
7306;SDS011;3694;48.732;9.248;2023-04-03T08:18:22;3.57;;;2.50;;
7306;SDS011;3694;48.732;9.248;2023-04-03T08:20:49;2.17;;;2.03;;
7306;SDS011;3694;48.732;9.248;2023-04-03T08:23:16;2.93;;;2.60;;
7306;SDS011;3694;48.732;9.248;2023-04-03T08:25:42;3.97;;;2.20;;
7306;SDS011;3694;48.732;9.248;2023-04-03T08:28:09;3.00;;;2.10;;
7306;SDS011;3694;48.732;9.248;2023-04-03T08:30:35;2.27;;;1.60;;
7306;SDS011;3694;48.732;9.248;2023-04-03T08:33:03;2.50;;;2.00;;
7306;SDS011;3694;48.732;9.248;2023-04-03T08:35:29;2.40;;;2.10;;
7306;SDS011;3694;48.732;9.248;2023-04-03T08:37:54;2.70;;;2.27;;
7306;SDS011;3694;48.732;9.248;2023-04-03T08:40:21;2.97;;;2.60;;
7306;SDS011;3694;48.732;9.248;2023-04-03T08:45:25;4.67;;;2.50;;
7306;SDS011;3694;48.732;9.248;2023-04-03T08:48:07;4.30;;;2.30;;
7306;SDS011;3694;48.732;9.248;2023-04-03T08:50:38;4.67;;;3.00;;
7306;SDS011;3694;48.732;9.248;2023-04-03T08:53:06;2.87;;;2.10;;
7306;SDS011;3694;48.732;9.248;2023-04-03T08:55:45;3.93;;;2.40;;
7306;SDS011;3694;48.732;9.248;2023-04-03T08:58:19;3.30;;;2.13;;
7306;SDS011;3694;48.732;9.248;2023-04-03T09:03:20;2.63;;;2.43;;
7306;SDS011;3694;48.732;9.248;2023-04-03T09:06:31;3.00;;;2.50;;
7306;SDS011;3694;48.732;9.248;2023-04-03T09:08:43;2.23;;;2.03;;
7306;SDS011;3694;48.732;9.248;2023-04-03T09:11:20;2.23;;;2.00;;
7306;SDS011;3694;48.732;9.248;2023-04-03T09:14:02;2.63;;;2.07;;
7306;SDS011;3694;48.732;9.248;2023-04-03T09:19:05;2.67;;;1.77;;
7306;SDS011;3694;48.732;9.248;2023-04-03T09:22:08;2.40;;;2.00;;
7306;SDS011;3694;48.732;9.248;2023-04-03T09:27:35;2.40;;;2.13;;
7306;SDS011;3694;48.732;9.248;2023-04-03T09:30:02;4.47;;;2.23;;
7306;SDS011;3694;48.732;9.248;2023-04-03T09:32:30;3.87;;;2.50;;
7306;SDS011;3694;48.732;9.248;2023-04-03T09:35:02;2.40;;;2.20;;
7306;SDS011;3694;48.732;9.248;2023-04-03T09:37:49;2.30;;;2.10;;
7306;SDS011;3694;48.732;9.248;2023-04-03T09:40:31;3.23;;;2.30;;
7306;SDS011;3694;48.732;9.248;2023-04-03T09:43:01;4.00;;;2.37;;
7306;SDS011;3694;48.732;9.248;2023-04-03T09:45:44;2.80;;;2.53;;
7306;SDS011;3694;48.732;9.248;2023-04-03T09:53:34;2.60;;;2.40;;
7306;SDS011;3694;48.732;9.248;2023-04-03T09:56:47;5.33;;;1.83;;
7306;SDS011;3694;48.732;9.248;2023-04-03T10:04:04;3.13;;;2.03;;
7306;SDS011;3694;48.732;9.248;2023-04-03T10:06:37;2.20;;;2.00;;
7306;SDS011;3694;48.732;9.248;2023-04-03T10:09:10;3.33;;;2.03;;
7306;SDS011;3694;48.732;9.248;2023-04-03T10:14:38;3.33;;;2.03;;
7306;SDS011;3694;48.732;9.248;2023-04-03T10:17:11;3.37;;;1.90;;
7306;SDS011;3694;48.732;9.248;2023-04-03T10:22:36;2.67;;;2.20;;
7306;SDS011;3694;48.732;9.248;2023-04-03T10:25:10;2.40;;;2.03;;
7306;SDS011;3694;48.732;9.248;2023-04-03T10:30:21;3.53;;;2.30;;
7306;SDS011;3694;48.732;9.248;2023-04-03T10:38:23;2.43;;;1.80;;
7306;SDS011;3694;48.732;9.248;2023-04-03T10:41:54;3.17;;;2.00;;
7306;SDS011;3694;48.732;9.248;2023-04-03T10:44:12;2.60;;;2.33;;
7306;SDS011;3694;48.732;9.248;2023-04-03T10:47:28;3.27;;;2.10;;
7306;SDS011;3694;48.732;9.248;2023-04-03T10:53:17;3.53;;;2.10;;
7306;SDS011;3694;48.732;9.248;2023-04-03T10:56:01;2.87;;;1.80;;
7306;SDS011;3694;48.732;9.248;2023-04-03T10:58:36;2.50;;;1.63;;
7306;SDS011;3694;48.732;9.248;2023-04-03T11:01:08;2.17;;;2.00;;
7306;SDS011;3694;48.732;9.248;2023-04-03T11:03:59;2.30;;;2.10;;
7306;SDS011;3694;48.732;9.248;2023-04-03T11:06:31;3.37;;;2.10;;
7306;SDS011;3694;48.732;9.248;2023-04-03T11:12:04;2.07;;;1.97;;
7306;SDS011;3694;48.732;9.248;2023-04-03T11:14:35;2.63;;;2.20;;
7306;SDS011;3694;48.732;9.248;2023-04-03T11:17:08;1.73;;;1.57;;
7306;SDS011;3694;48.732;9.248;2023-04-03T11:19:45;2.33;;;1.90;;
7306;SDS011;3694;48.732;9.248;2023-04-03T11:27:40;1.87;;;1.40;;
7306;SDS011;3694;48.732;9.248;2023-04-03T11:30:16;3.03;;;2.00;;
7306;SDS011;3694;48.732;9.248;2023-04-03T11:35:24;1.70;;;1.57;;
7306;SDS011;3694;48.732;9.248;2023-04-03T11:37:51;1.93;;;1.67;;
7306;SDS011;3694;48.732;9.248;2023-04-03T11:40:20;1.63;;;1.20;;
7306;SDS011;3694;48.732;9.248;2023-04-03T11:42:47;2.00;;;1.23;;
7306;SDS011;3694;48.732;9.248;2023-04-03T11:47:59;2.23;;;1.77;;
7306;SDS011;3694;48.732;9.248;2023-04-03T11:53:03;1.10;;;1.00;;
7306;SDS011;3694;48.732;9.248;2023-04-03T11:56:00;4.27;;;1.60;;
7306;SDS011;3694;48.732;9.248;2023-04-03T11:58:28;2.30;;;1.50;;
7306;SDS011;3694;48.732;9.248;2023-04-03T12:16:26;2.03;;;1.63;;
7306;SDS011;3694;48.732;9.248;2023-04-03T12:29:15;3.10;;;1.77;;
7306;SDS011;3694;48.732;9.248;2023-04-03T12:31:46;2.83;;;1.63;;
7306;SDS011;3694;48.732;9.248;2023-04-03T12:47:43;2.30;;;1.70;;
7306;SDS011;3694;48.732;9.248;2023-04-03T12:50:20;1.50;;;1.40;;
7306;SDS011;3694;48.732;9.248;2023-04-03T12:53:02;1.80;;;1.40;;
7306;SDS011;3694;48.732;9.248;2023-04-03T12:55:31;1.20;;;1.10;;
7306;SDS011;3694;48.732;9.248;2023-04-03T12:57:57;1.33;;;1.23;;
7306;SDS011;3694;48.732;9.248;2023-04-03T13:00:38;1.67;;;1.33;;
7306;SDS011;3694;48.732;9.248;2023-04-03T13:03:04;3.27;;;1.57;;
7306;SDS011;3694;48.732;9.248;2023-04-03T13:05:44;1.93;;;1.50;;
7306;SDS011;3694;48.732;9.248;2023-04-03T13:08:12;2.00;;;1.57;;
7306;SDS011;3694;48.732;9.248;2023-04-03T13:10:51;2.90;;;1.30;;
7306;SDS011;3694;48.732;9.248;2023-04-03T13:13:21;2.67;;;1.60;;
7306;SDS011;3694;48.732;9.248;2023-04-03T13:15:48;3.17;;;1.80;;
7306;SDS011;3694;48.732;9.248;2023-04-03T13:18:26;2.27;;;1.50;;
7306;SDS011;3694;48.732;9.248;2023-04-03T13:20:58;3.00;;;1.70;;
7306;SDS011;3694;48.732;9.248;2023-04-03T13:23:29;3.43;;;1.67;;
7306;SDS011;3694;48.732;9.248;2023-04-03T13:25:56;3.30;;;2.00;;
7306;SDS011;3694;48.732;9.248;2023-04-03T13:28:27;2.93;;;1.87;;
7306;SDS011;3694;48.732;9.248;2023-04-03T13:30:58;2.40;;;1.47;;
7306;SDS011;3694;48.732;9.248;2023-04-03T13:33:25;4.57;;;1.90;;
7306;SDS011;3694;48.732;9.248;2023-04-03T13:35:56;2.33;;;1.70;;
7306;SDS011;3694;48.732;9.248;2023-04-03T13:38:38;1.83;;;1.67;;
7306;SDS011;3694;48.732;9.248;2023-04-03T13:41:05;2.30;;;1.60;;
7306;SDS011;3694;48.732;9.248;2023-04-03T13:43:48;2.27;;;1.57;;
7306;SDS011;3694;48.732;9.248;2023-04-03T13:48:44;1.93;;;1.63;;
7306;SDS011;3694;48.732;9.248;2023-04-03T13:56:22;2.37;;;2.00;;
7306;SDS011;3694;48.732;9.248;2023-04-03T13:59:02;2.37;;;1.63;;
7306;SDS011;3694;48.732;9.248;2023-04-03T14:01:50;2.07;;;1.57;;
7306;SDS011;3694;48.732;9.248;2023-04-03T14:04:31;1.70;;;1.43;;
7306;SDS011;3694;48.732;9.248;2023-04-03T14:07:13;1.80;;;1.70;;
7306;SDS011;3694;48.732;9.248;2023-04-03T14:09:41;1.50;;;1.40;;
7306;SDS011;3694;48.732;9.248;2023-04-03T14:12:15;2.30;;;1.47;;
7306;SDS011;3694;48.732;9.248;2023-04-03T14:14:46;2.83;;;1.97;;
7306;SDS011;3694;48.732;9.248;2023-04-03T14:17:19;3.30;;;1.90;;
7306;SDS011;3694;48.732;9.248;2023-04-03T14:19:47;1.90;;;1.57;;
7306;SDS011;3694;48.732;9.248;2023-04-03T14:24:40;2.10;;;1.90;;
7306;SDS011;3694;48.732;9.248;2023-04-03T14:27:10;3.57;;;1.77;;
7306;SDS011;3694;48.732;9.248;2023-04-03T14:29:41;2.63;;;2.13;;
7306;SDS011;3694;48.732;9.248;2023-04-03T14:32:06;2.13;;;1.50;;
7306;SDS011;3694;48.732;9.248;2023-04-03T14:34:32;2.53;;;1.50;;
7306;SDS011;3694;48.732;9.248;2023-04-03T14:36:58;2.00;;;1.80;;
7306;SDS011;3694;48.732;9.248;2023-04-03T14:39:23;1.30;;;1.20;;
7306;SDS011;3694;48.732;9.248;2023-04-03T14:41:49;2.13;;;1.83;;
7306;SDS011;3694;48.732;9.248;2023-04-03T14:44:15;2.23;;;1.73;;
7306;SDS011;3694;48.732;9.248;2023-04-03T14:46:42;2.33;;;1.80;;
7306;SDS011;3694;48.732;9.248;2023-04-03T14:49:14;2.60;;;1.83;;
7306;SDS011;3694;48.732;9.248;2023-04-03T14:51:41;3.73;;;2.03;;
7306;SDS011;3694;48.732;9.248;2023-04-03T14:54:12;2.53;;;1.77;;
7306;SDS011;3694;48.732;9.248;2023-04-03T14:56:40;2.77;;;2.10;;
7306;SDS011;3694;48.732;9.248;2023-04-03T14:59:08;1.70;;;1.60;;
7306;SDS011;3694;48.732;9.248;2023-04-03T15:01:36;2.37;;;1.80;;
7306;SDS011;3694;48.732;9.248;2023-04-03T15:04:05;2.50;;;2.10;;
7306;SDS011;3694;48.732;9.248;2023-04-03T15:06:35;2.43;;;1.87;;
7306;SDS011;3694;48.732;9.248;2023-04-03T15:09:01;2.57;;;2.10;;
7306;SDS011;3694;48.732;9.248;2023-04-03T15:11:28;3.17;;;1.80;;
7306;SDS011;3694;48.732;9.248;2023-04-03T15:13:53;3.77;;;1.80;;
7306;SDS011;3694;48.732;9.248;2023-04-03T15:16:19;2.57;;;1.90;;
7306;SDS011;3694;48.732;9.248;2023-04-03T15:18:45;2.93;;;1.80;;
7306;SDS011;3694;48.732;9.248;2023-04-03T15:21:11;3.70;;;1.80;;
7306;SDS011;3694;48.732;9.248;2023-04-03T15:23:37;4.63;;;1.73;;
7306;SDS011;3694;48.732;9.248;2023-04-03T15:26:03;2.10;;;1.90;;
7306;SDS011;3694;48.732;9.248;2023-04-03T15:28:31;2.67;;;2.03;;
7306;SDS011;3694;48.732;9.248;2023-04-03T15:30:58;2.23;;;1.80;;
7306;SDS011;3694;48.732;9.248;2023-04-03T15:33:25;2.20;;;1.47;;
7306;SDS011;3694;48.732;9.248;2023-04-03T15:35:51;2.20;;;1.80;;
7306;SDS011;3694;48.732;9.248;2023-04-03T15:38:16;2.20;;;1.83;;
7306;SDS011;3694;48.732;9.248;2023-04-03T15:40:42;3.13;;;2.10;;
7306;SDS011;3694;48.732;9.248;2023-04-03T15:43:08;2.00;;;1.80;;
7306;SDS011;3694;48.732;9.248;2023-04-03T15:45:34;2.70;;;1.77;;
7306;SDS011;3694;48.732;9.248;2023-04-03T15:48:01;2.00;;;1.63;;
7306;SDS011;3694;48.732;9.248;2023-04-03T15:50:28;2.60;;;1.73;;
7306;SDS011;3694;48.732;9.248;2023-04-03T15:52:54;2.73;;;1.70;;
7306;SDS011;3694;48.732;9.248;2023-04-03T15:55:26;4.03;;;2.00;;
7306;SDS011;3694;48.732;9.248;2023-04-03T15:57:53;2.27;;;1.70;;
7306;SDS011;3694;48.732;9.248;2023-04-03T16:00:20;2.60;;;1.80;;
7306;SDS011;3694;48.732;9.248;2023-04-03T16:02:47;1.83;;;1.73;;
7306;SDS011;3694;48.732;9.248;2023-04-03T16:05:15;2.63;;;1.80;;
7306;SDS011;3694;48.732;9.248;2023-04-03T16:07:42;2.10;;;1.50;;
7306;SDS011;3694;48.732;9.248;2023-04-03T16:10:10;1.87;;;1.57;;
7306;SDS011;3694;48.732;9.248;2023-04-03T16:12:36;2.37;;;1.70;;
7306;SDS011;3694;48.732;9.248;2023-04-03T16:15:02;3.00;;;1.77;;
7306;SDS011;3694;48.732;9.248;2023-04-03T16:17:32;3.13;;;1.77;;
7306;SDS011;3694;48.732;9.248;2023-04-03T16:19:58;2.57;;;1.73;;
7306;SDS011;3694;48.732;9.248;2023-04-03T16:22:25;2.43;;;1.40;;
7306;SDS011;3694;48.732;9.248;2023-04-03T16:24:52;4.67;;;2.00;;
7306;SDS011;3694;48.732;9.248;2023-04-03T16:27:18;2.63;;;1.90;;
7306;SDS011;3694;48.732;9.248;2023-04-03T16:29:44;1.60;;;1.47;;
7306;SDS011;3694;48.732;9.248;2023-04-03T16:32:09;2.83;;;1.77;;
7306;SDS011;3694;48.732;9.248;2023-04-03T16:34:35;3.47;;;1.70;;
7306;SDS011;3694;48.732;9.248;2023-04-03T16:37:00;2.07;;;1.90;;
7306;SDS011;3694;48.732;9.248;2023-04-03T16:39:26;4.20;;;1.83;;
7306;SDS011;3694;48.732;9.248;2023-04-03T16:41:52;2.13;;;1.80;;
7306;SDS011;3694;48.732;9.248;2023-04-03T16:44:17;3.43;;;1.70;;
7306;SDS011;3694;48.732;9.248;2023-04-03T16:46:43;2.60;;;1.93;;
7306;SDS011;3694;48.732;9.248;2023-04-03T16:49:09;2.13;;;1.93;;
7306;SDS011;3694;48.732;9.248;2023-04-03T16:51:34;3.17;;;2.20;;
7306;SDS011;3694;48.732;9.248;2023-04-03T16:54:00;4.10;;;2.63;;
7306;SDS011;3694;48.732;9.248;2023-04-03T16:56:25;2.53;;;2.07;;
7306;SDS011;3694;48.732;9.248;2023-04-03T16:58:54;2.63;;;1.80;;
7306;SDS011;3694;48.732;9.248;2023-04-03T17:01:20;3.03;;;1.50;;
7306;SDS011;3694;48.732;9.248;2023-04-03T17:03:47;1.60;;;1.27;;
7306;SDS011;3694;48.732;9.248;2023-04-03T17:06:15;2.90;;;2.10;;
7306;SDS011;3694;48.732;9.248;2023-04-03T17:08:43;2.60;;;1.83;;
7306;SDS011;3694;48.732;9.248;2023-04-03T17:11:10;3.10;;;1.60;;
7306;SDS011;3694;48.732;9.248;2023-04-03T17:13:36;2.90;;;2.00;;